createdAt,value
2023-04-10T00:01:39.819Z,3.40
2023-04-10T00:04:08.454Z,3.30
2023-04-10T00:06:37.049Z,3.23
2023-04-10T00:09:05.343Z,3.19
2023-04-10T00:11:33.721Z,3.18
2023-04-10T00:14:02.618Z,3.16
2023-04-10T00:16:31.275Z,3.16
2023-04-10T00:18:59.699Z,3.16
2023-04-10T00:21:28.585Z,3.14
2023-04-10T00:23:57.075Z,3.12
2023-04-10T00:26:27.001Z,3.11
2023-04-10T00:28:55.589Z,3.07
2023-04-10T00:31:24.408Z,3.07
2023-04-10T00:33:53.175Z,3.09
2023-04-10T00:36:21.898Z,3.11
2023-04-10T00:38:50.559Z,3.11
2023-04-10T00:41:19.246Z,3.11
2023-04-10T00:43:47.527Z,3.16
2023-04-10T00:46:16.699Z,3.18
2023-04-10T00:48:45.113Z,3.18
2023-04-10T00:51:13.807Z,3.14
2023-04-10T00:53:42.397Z,3.13
2023-04-10T00:56:10.728Z,3.14
2023-04-10T00:58:39.677Z,3.14
2023-04-10T01:01:08.712Z,3.13
2023-04-10T01:03:39.480Z,3.10
2023-04-10T01:06:28.280Z,3.09
2023-04-10T01:09:17.939Z,3.10
2023-04-10T01:11:54.939Z,3.10
2023-04-10T01:14:44.173Z,3.10
2023-04-10T01:17:27.746Z,3.09
2023-04-10T01:20:08.068Z,3.08
2023-04-10T01:22:46.072Z,3.05
2023-04-10T01:25:14.248Z,3.01
2023-04-10T01:28:07.909Z,2.95
2023-04-10T01:30:37.908Z,2.88
2023-04-10T01:33:13.067Z,2.81
2023-04-10T01:35:44.314Z,2.74
2023-04-10T01:38:16.513Z,2.68
2023-04-10T01:40:50.354Z,2.60
2023-04-10T01:43:27.205Z,2.52
2023-04-10T01:45:57.889Z,2.47
2023-04-10T01:48:28.037Z,2.41
2023-04-10T01:50:59.909Z,2.33
2023-04-10T01:53:29.701Z,2.24
2023-04-10T01:55:58.960Z,2.20
2023-04-10T01:58:27.934Z,2.16
2023-04-10T02:00:58.254Z,2.12
2023-04-10T02:03:27.075Z,2.08
2023-04-10T02:05:58.907Z,2.04
2023-04-10T02:08:36.718Z,2.02
2023-04-10T02:11:22.285Z,1.99
2023-04-10T02:13:54.687Z,1.95
2023-04-10T02:16:24.140Z,1.93
2023-04-10T02:18:54.066Z,1.90
2023-04-10T02:21:22.885Z,1.86
2023-04-10T02:23:51.609Z,1.84
2023-04-10T02:26:20.573Z,1.84
2023-04-10T02:28:49.166Z,1.86
2023-04-10T02:31:17.968Z,1.89
2023-04-10T02:33:46.663Z,1.91
2023-04-10T02:36:15.430Z,1.95
2023-04-10T02:38:44.083Z,1.99
2023-04-10T02:41:13.135Z,1.98
2023-04-10T02:43:41.957Z,1.99
2023-04-10T02:46:10.946Z,1.97
2023-04-10T02:48:41.050Z,1.97
2023-04-10T02:51:09.332Z,1.99
2023-04-10T02:53:39.455Z,1.99
2023-04-10T02:56:09.268Z,2.00
2023-04-10T02:58:38.477Z,2.00
2023-04-10T03:01:10.255Z,2.02
2023-04-10T03:03:44.135Z,2.02
2023-04-10T03:06:12.943Z,2.02
2023-04-10T03:08:42.452Z,2.03
2023-04-10T03:11:10.857Z,2.04
2023-04-10T03:13:39.220Z,2.04
2023-04-10T03:16:08.348Z,2.03
2023-04-10T03:18:37.323Z,1.98
2023-04-10T03:21:06.557Z,1.95
2023-04-10T03:23:34.911Z,1.90
2023-04-10T03:26:05.033Z,1.83
2023-04-10T03:28:38.115Z,1.76
2023-04-10T03:31:07.237Z,1.72
2023-04-10T03:33:37.030Z,1.66
2023-04-10T03:36:06.111Z,1.60
2023-04-10T03:38:34.942Z,1.57
2023-04-10T03:41:06.506Z,1.54
2023-04-10T03:43:35.488Z,1.51
2023-04-10T03:46:04.595Z,1.48
2023-04-10T03:48:33.694Z,1.44
2023-04-10T03:51:02.698Z,1.39
2023-04-10T03:53:36.336Z,1.36
2023-04-10T03:56:08.873Z,1.34
2023-04-10T03:58:37.677Z,1.31
2023-04-10T04:01:07.808Z,1.31
2023-04-10T04:03:49.384Z,1.35
2023-04-10T04:06:36.385Z,1.38
2023-04-10T04:09:34.037Z,1.39
2023-04-10T04:12:22.593Z,1.39
2023-04-10T04:15:07.054Z,1.38
2023-04-10T04:17:54.197Z,1.39
2023-04-10T04:20:25.916Z,1.43
2023-04-10T04:23:17.941Z,1.46
2023-04-10T04:26:07.052Z,1.49
2023-04-10T04:28:53.998Z,1.56
2023-04-10T04:31:57.701Z,1.66
2023-04-10T04:34:55.558Z,1.77
2023-04-10T04:37:47.096Z,1.88
2023-04-10T04:40:34.574Z,1.95
2023-04-10T04:43:32.535Z,2.09
2023-04-10T04:46:07.653Z,2.24
2023-04-10T04:48:54.985Z,2.36
2023-04-10T04:51:42.848Z,2.42
2023-04-10T04:54:29.625Z,2.49
2023-04-10T04:57:16.630Z,2.58
2023-04-10T05:00:06.642Z,2.70
2023-04-10T05:02:58.944Z,2.82
2023-04-10T05:05:35.730Z,2.92
2023-04-10T05:08:23.132Z,2.98
2023-04-10T05:11:06.351Z,3.06
2023-04-10T05:13:55.511Z,3.11
2023-04-10T05:16:39.349Z,3.21
2023-04-10T05:19:17.254Z,3.26
2023-04-10T05:22:18.685Z,3.35
2023-04-10T05:24:47.171Z,3.40
2023-04-10T05:27:30.190Z,3.46
2023-04-10T05:30:10.253Z,3.53
2023-04-10T05:32:38.551Z,3.60
2023-04-10T05:35:25.742Z,3.67
2023-04-10T05:38:04.976Z,3.74
2023-04-10T05:40:45.990Z,3.81
2023-04-10T05:43:37.769Z,3.88
2023-04-10T05:46:15.301Z,3.95
2023-04-10T05:49:04.424Z,4.03
2023-04-10T05:51:53.980Z,4.14
2023-04-10T05:54:45.086Z,4.26
2023-04-10T05:57:51.539Z,4.37
2023-04-10T06:00:22.700Z,4.49
2023-04-10T06:03:30.996Z,4.62
2023-04-10T06:06:02.955Z,4.74
2023-04-10T06:08:31.739Z,4.88
2023-04-10T06:11:01.154Z,4.99
2023-04-10T06:13:32.622Z,5.09
2023-04-10T06:16:02.359Z,5.17
2023-04-10T06:18:31.741Z,5.25
2023-04-10T06:21:02.307Z,5.31
2023-04-10T06:23:31.152Z,5.40
2023-04-10T06:26:01.033Z,5.48
2023-04-10T06:28:29.663Z,5.57
2023-04-10T06:31:04.405Z,5.65
2023-04-10T06:33:38.199Z,5.75
2023-04-10T06:36:09.041Z,5.82
2023-04-10T06:38:43.871Z,5.90
2023-04-10T06:41:12.670Z,5.97
2023-04-10T06:43:41.668Z,6.06
2023-04-10T06:46:10.154Z,6.16
2023-04-10T06:48:38.743Z,6.26
2023-04-10T06:51:07.774Z,6.34
2023-04-10T06:53:36.646Z,6.44
2023-04-10T06:56:06.112Z,6.53
2023-04-10T06:58:34.638Z,6.62
2023-04-10T07:01:06.006Z,6.71
2023-04-10T07:03:34.519Z,6.82
2023-04-10T07:06:03.581Z,6.94
2023-04-10T07:08:32.263Z,7.06
2023-04-10T07:11:00.555Z,7.17
2023-04-10T07:13:29.341Z,7.27
2023-04-10T07:15:57.855Z,7.38
2023-04-10T07:18:26.418Z,7.49
2023-04-10T07:20:54.801Z,7.59
2023-04-10T07:23:23.199Z,7.68
2023-04-10T07:25:52.284Z,7.79
2023-04-10T07:28:20.775Z,7.88
2023-04-10T07:30:49.267Z,7.97
2023-04-10T07:33:17.752Z,8.11
2023-04-10T07:35:46.389Z,8.21
2023-04-10T07:38:15.353Z,8.32
2023-04-10T07:40:44.230Z,8.43
2023-04-10T07:43:12.998Z,8.56
2023-04-10T07:45:41.860Z,8.72
2023-04-10T07:48:10.921Z,8.88
2023-04-10T07:50:39.511Z,9.01
2023-04-10T07:53:08.294Z,9.16
2023-04-10T07:55:40.580Z,9.29
2023-04-10T07:58:10.439Z,9.43
2023-04-10T08:00:38.695Z,9.57
2023-04-10T08:03:07.543Z,9.73
2023-04-10T08:05:36.570Z,9.89
2023-04-10T08:08:04.866Z,10.01
2023-04-10T08:10:37.741Z,10.15
2023-04-10T08:13:06.543Z,10.27
2023-04-10T08:15:35.695Z,10.36
2023-04-10T08:18:04.366Z,10.48
2023-04-10T08:20:37.145Z,10.58
2023-04-10T08:23:17.375Z,10.67
2023-04-10T08:25:49.135Z,10.79
2023-04-10T08:28:17.803Z,10.92
2023-04-10T08:30:46.369Z,11.04
2023-04-10T08:33:17.578Z,11.18
2023-04-10T08:35:49.379Z,11.30
2023-04-10T08:38:18.007Z,11.43
2023-04-10T08:40:46.288Z,11.56
2023-04-10T08:43:15.184Z,11.71
2023-04-10T08:45:44.431Z,11.84
2023-04-10T08:48:15.128Z,11.95
2023-04-10T08:50:46.259Z,12.04
2023-04-10T08:53:16.678Z,12.19
2023-04-10T08:55:46.215Z,12.34
2023-04-10T08:58:15.939Z,12.53
2023-04-10T09:00:44.528Z,12.70
2023-04-10T09:03:15.121Z,12.90
2023-04-10T09:05:44.048Z,13.03
2023-04-10T09:08:14.998Z,13.16
2023-04-10T09:10:43.479Z,13.39
2023-04-10T09:13:12.275Z,13.65
2023-04-10T09:15:57.679Z,13.94
2023-04-10T09:18:46.694Z,14.29
2023-04-10T09:21:18.634Z,14.66
2023-04-10T09:23:49.055Z,15.00
2023-04-10T09:26:24.747Z,15.38
2023-04-10T09:28:58.088Z,15.86
2023-04-10T09:31:37.772Z,16.39
2023-04-10T09:34:12.121Z,17.10
2023-04-10T09:37:01.880Z,17.88
2023-04-10T09:39:34.395Z,18.61
2023-04-10T09:42:02.987Z,19.20
2023-04-10T09:44:33.723Z,19.79
2023-04-10T09:47:14.450Z,20.33
2023-04-10T09:49:50.234Z,20.74
2023-04-10T09:52:27.352Z,21.07
2023-04-10T09:54:59.085Z,21.40
2023-04-10T09:57:29.989Z,21.75
2023-04-10T10:00:10.038Z,21.96
2023-04-10T10:02:41.928Z,22.47
2023-04-10T10:05:11.677Z,22.75
2023-04-10T10:07:40.206Z,23.16
2023-04-10T10:10:11.775Z,23.60
2023-04-10T10:12:52.755Z,23.79
2023-04-10T10:15:34.321Z,23.97
2023-04-10T10:18:38.020Z,24.12
2023-04-10T10:21:09.747Z,24.44
2023-04-10T10:23:38.278Z,24.72
2023-04-10T10:26:06.918Z,24.83
2023-04-10T10:28:36.258Z,25.08
2023-04-10T10:31:05.921Z,25.51
2023-04-10T10:33:37.234Z,25.89
2023-04-10T10:36:07.228Z,26.39
2023-04-10T10:38:40.545Z,26.82
2023-04-10T10:41:16.110Z,27.26
2023-04-10T10:44:09.256Z,27.74
2023-04-10T10:46:43.565Z,27.96
2023-04-10T10:49:12.263Z,28.21
2023-04-10T10:51:51.644Z,28.25
2023-04-10T10:54:40.361Z,28.37
2023-04-10T10:58:02.049Z,28.90
2023-04-10T11:00:52.369Z,29.20
2023-04-10T11:03:21.000Z,29.16
2023-04-10T11:05:55.571Z,29.23
2023-04-10T11:08:32.934Z,29.51
2023-04-10T11:11:08.704Z,29.64
2023-04-10T11:13:39.849Z,29.31
2023-04-10T11:16:12.876Z,28.94
2023-04-10T11:18:55.881Z,28.48
2023-04-10T11:21:31.829Z,28.16
2023-04-10T11:24:00.723Z,28.08
2023-04-10T11:26:35.327Z,28.13
2023-04-10T11:29:05.649Z,28.43
2023-04-10T11:31:34.503Z,28.54
2023-04-10T11:34:04.970Z,28.87
2023-04-10T11:36:34.637Z,29.22
2023-04-10T11:39:14.438Z,29.62
2023-04-10T11:41:44.964Z,29.66
2023-04-10T11:44:16.521Z,29.56
2023-04-10T11:46:51.157Z,29.75
2023-04-10T11:49:23.936Z,29.50
2023-04-10T11:51:52.414Z,29.39
2023-04-10T11:54:23.260Z,29.43
2023-04-10T11:57:12.108Z,29.65
2023-04-10T11:59:40.491Z,29.66
2023-04-10T12:02:10.106Z,29.31
2023-04-10T12:04:39.021Z,29.09
2023-04-10T12:07:07.994Z,29.03
2023-04-10T12:09:36.682Z,29.14
2023-04-10T12:12:07.382Z,29.61
2023-04-10T12:14:38.453Z,29.84
2023-04-10T12:17:09.097Z,30.00
2023-04-10T12:19:39.281Z,29.86
2023-04-10T12:22:08.092Z,30.14
2023-04-10T12:24:46.549Z,30.21
2023-04-10T12:27:18.343Z,30.14
2023-04-10T12:29:48.329Z,30.22
2023-04-10T12:32:16.998Z,30.60
2023-04-10T12:34:52.028Z,30.78
2023-04-10T12:37:21.225Z,30.74
2023-04-10T12:39:50.005Z,30.78
2023-04-10T12:42:23.187Z,30.90
2023-04-10T12:44:59.815Z,31.34
2023-04-10T12:47:29.663Z,31.45
2023-04-10T12:50:12.242Z,31.64
2023-04-10T12:52:43.398Z,31.78
2023-04-10T12:55:16.063Z,31.66
2023-04-10T12:57:46.276Z,31.81
2023-04-10T13:00:17.584Z,31.57
2023-04-10T13:02:47.674Z,30.76
2023-04-10T13:05:16.576Z,30.20
2023-04-10T13:07:44.757Z,30.24
2023-04-10T13:10:13.239Z,30.28
2023-04-10T13:12:42.239Z,30.24
2023-04-10T13:15:11.034Z,30.76
2023-04-10T13:17:41.233Z,31.10
2023-04-10T13:20:11.297Z,31.20
2023-04-10T13:22:39.771Z,31.49
2023-04-10T13:25:08.730Z,32.02
2023-04-10T13:27:36.946Z,32.49
2023-04-10T13:30:06.371Z,32.57
2023-04-10T13:32:34.557Z,32.64
2023-04-10T13:35:03.027Z,32.86
2023-04-10T13:37:31.406Z,32.39
2023-04-10T13:39:59.791Z,31.69
2023-04-10T13:42:27.968Z,31.29
2023-04-10T13:44:56.675Z,31.65
2023-04-10T13:47:25.200Z,32.32
2023-04-10T13:49:53.643Z,32.69
2023-04-10T13:52:22.025Z,33.08
2023-04-10T13:54:50.202Z,33.29
2023-04-10T13:57:18.387Z,33.72
2023-04-10T13:59:46.561Z,33.93
2023-04-10T14:02:14.948Z,33.83
2023-04-10T14:04:43.436Z,33.69
2023-04-10T14:07:12.430Z,33.47
2023-04-10T14:09:41.022Z,33.64
2023-04-10T14:12:09.509Z,33.91
2023-04-10T14:14:37.790Z,33.33
2023-04-10T14:17:06.238Z,32.84
2023-04-10T14:19:36.814Z,33.10
2023-04-10T14:22:05.209Z,33.45
2023-04-10T14:24:33.793Z,33.58
2023-04-10T14:27:02.057Z,33.89
2023-04-10T14:29:37.313Z,34.13
2023-04-10T14:32:07.710Z,34.54
2023-04-10T14:34:36.021Z,34.52
2023-04-10T14:37:04.328Z,34.18
2023-04-10T14:39:34.007Z,33.99
2023-04-10T14:42:03.020Z,33.85
2023-04-10T14:44:31.291Z,33.60
2023-04-10T14:47:00.499Z,33.71
2023-04-10T14:49:29.088Z,33.86
2023-04-10T14:51:58.289Z,33.20
2023-04-10T14:54:26.596Z,33.05
2023-04-10T14:56:54.760Z,33.23
2023-04-10T14:59:22.933Z,33.30
2023-04-10T15:01:52.975Z,33.32
2023-04-10T15:04:21.364Z,33.38
2023-04-10T15:06:49.824Z,33.44
2023-04-10T15:09:19.171Z,33.46
2023-04-10T15:11:48.443Z,33.35
2023-04-10T15:14:17.443Z,32.50
2023-04-10T15:16:47.546Z,31.09
2023-04-10T15:19:16.470Z,29.54
2023-04-10T15:21:44.848Z,28.22
2023-04-10T15:24:13.337Z,27.15
2023-04-10T15:26:46.153Z,26.35
2023-04-10T15:29:14.833Z,25.80
2023-04-10T15:31:43.089Z,25.22
2023-04-10T15:34:11.369Z,25.08
2023-04-10T15:36:39.753Z,25.65
2023-04-10T15:39:08.758Z,26.22
2023-04-10T15:41:38.055Z,26.64
2023-04-10T15:44:06.553Z,26.99
2023-04-10T15:46:36.518Z,27.12
2023-04-10T15:49:04.849Z,27.15
2023-04-10T15:51:33.535Z,27.10
2023-04-10T15:54:04.995Z,26.85
2023-04-10T15:56:33.908Z,26.21
2023-04-10T15:59:02.370Z,25.42
2023-04-10T16:01:31.212Z,24.75
2023-04-10T16:03:59.802Z,24.14
2023-04-10T16:06:29.275Z,23.55
2023-04-10T16:08:57.853Z,23.05
2023-04-10T16:11:26.450Z,22.53
2023-04-10T16:13:55.794Z,21.80
2023-04-10T16:16:24.400Z,21.25
2023-04-10T16:18:54.307Z,20.87
2023-04-10T16:21:23.569Z,20.62
2023-04-10T16:23:51.883Z,20.38
2023-04-10T16:26:20.131Z,20.12
2023-04-10T16:28:48.735Z,19.86
2023-04-10T16:31:17.240Z,19.62
2023-04-10T16:33:45.690Z,19.31
2023-04-10T16:36:14.179Z,19.00
2023-04-10T16:38:42.561Z,18.69
2023-04-10T16:41:12.663Z,18.36
2023-04-10T16:43:41.174Z,18.11
2023-04-10T16:46:09.997Z,17.86
2023-04-10T16:48:38.763Z,17.60
2023-04-10T16:51:14.921Z,17.34
2023-04-10T16:53:43.616Z,17.05
2023-04-10T16:56:12.311Z,16.86
2023-04-10T16:58:42.164Z,16.65
2023-04-10T17:01:27.199Z,16.44
2023-04-10T17:03:55.576Z,16.13
2023-04-10T17:06:23.960Z,15.91
2023-04-10T17:08:52.505Z,15.73
2023-04-10T17:11:21.339Z,15.54
2023-04-10T17:13:50.243Z,15.35
2023-04-10T17:16:19.137Z,15.20
2023-04-10T17:18:48.866Z,15.05
2023-04-10T17:21:17.848Z,14.90
2023-04-10T17:23:46.651Z,14.77
2023-04-10T17:26:17.034Z,14.63
2023-04-10T17:28:46.728Z,14.52
2023-04-10T17:31:16.066Z,14.39
2023-04-10T17:33:44.583Z,14.24
2023-04-10T17:36:13.887Z,14.11
2023-04-10T17:38:42.875Z,13.98
2023-04-10T17:41:16.182Z,13.85
2023-04-10T17:43:44.675Z,13.68
2023-04-10T17:46:17.160Z,13.47
2023-04-10T17:48:45.907Z,13.29
2023-04-10T17:51:14.433Z,13.16
2023-04-10T17:53:42.709Z,13.00
2023-04-10T17:56:19.558Z,12.83
2023-04-10T17:58:47.972Z,12.69
2023-04-10T18:01:30.497Z,12.60
2023-04-10T18:04:00.097Z,12.53
2023-04-10T18:06:29.175Z,12.42
2023-04-10T18:08:57.623Z,12.33
2023-04-10T18:11:26.176Z,12.23
2023-04-10T18:13:54.866Z,12.11
2023-04-10T18:16:23.473Z,12.00
2023-04-10T18:18:52.803Z,11.93
2023-04-10T18:21:21.449Z,11.84
2023-04-10T18:23:49.827Z,11.78
2023-04-10T18:26:21.118Z,11.71
2023-04-10T18:28:49.463Z,11.65
2023-04-10T18:31:19.323Z,11.57
2023-04-10T18:33:56.190Z,11.47
2023-04-10T18:36:32.420Z,11.39
2023-04-10T18:39:00.817Z,11.28
2023-04-10T18:41:29.093Z,11.21
2023-04-10T18:44:05.045Z,11.10
2023-04-10T18:46:34.601Z,11.04
2023-04-10T18:49:03.786Z,11.05
2023-04-10T18:51:34.903Z,11.05
2023-04-10T18:54:04.530Z,11.03
2023-04-10T18:56:35.756Z,10.96
2023-04-10T18:59:07.734Z,10.91
2023-04-10T19:01:36.430Z,10.88
2023-04-10T19:04:04.902Z,10.88
2023-04-10T19:06:35.220Z,10.89
2023-04-10T19:09:03.523Z,10.87
2023-04-10T19:11:32.833Z,10.85
2023-04-10T19:14:01.524Z,10.85
2023-04-10T19:16:30.247Z,10.85
2023-04-10T19:19:01.880Z,10.86
2023-04-10T19:21:32.107Z,10.83
2023-04-10T19:24:00.478Z,10.79
2023-04-10T19:26:29.067Z,10.79
2023-04-10T19:28:57.913Z,10.78
2023-04-10T19:31:29.060Z,10.78
2023-04-10T19:33:57.702Z,10.81
2023-04-10T19:36:27.340Z,10.86
2023-04-10T19:38:57.683Z,10.88
2023-04-10T19:41:26.639Z,10.90
2023-04-10T19:43:55.941Z,10.91
2023-04-10T19:46:24.674Z,10.91
2023-04-10T19:48:54.856Z,10.92
2023-04-10T19:51:23.456Z,10.89
2023-04-10T19:53:51.939Z,10.87
2023-04-10T19:56:21.248Z,10.85
2023-04-10T19:58:49.940Z,10.81
2023-04-10T20:01:18.474Z,10.76
2023-04-10T20:03:47.101Z,10.73
2023-04-10T20:06:16.303Z,10.70
2023-04-10T20:08:44.704Z,10.71
2023-04-10T20:11:13.311Z,10.74
2023-04-10T20:13:41.877Z,10.73
2023-04-10T20:16:10.477Z,10.70
2023-04-10T20:18:39.470Z,10.68
2023-04-10T20:21:08.411Z,10.68
2023-04-10T20:23:37.706Z,10.67
2023-04-10T20:26:06.928Z,10.69
2023-04-10T20:28:35.562Z,10.72
2023-04-10T20:31:04.128Z,10.76
2023-04-10T20:33:32.639Z,10.78
2023-04-10T20:36:01.164Z,10.78
2023-04-10T20:38:29.938Z,10.77
2023-04-10T20:40:58.206Z,10.68
2023-04-10T20:43:26.687Z,10.55
2023-04-10T20:45:55.583Z,10.40
2023-04-10T20:48:24.373Z,10.23
2023-04-10T20:50:53.095Z,10.10
2023-04-10T20:53:21.552Z,10.07
2023-04-10T20:55:56.493Z,10.03
2023-04-10T20:58:24.768Z,9.96
2023-04-10T21:00:54.065Z,9.95
2023-04-10T21:03:23.779Z,9.95
2023-04-10T21:05:53.836Z,9.87
2023-04-10T21:08:22.529Z,9.77
2023-04-10T21:10:51.508Z,9.66
2023-04-10T21:13:20.001Z,9.59
2023-04-10T21:15:48.700Z,9.54
2023-04-10T21:18:17.505Z,9.45
2023-04-10T21:20:45.969Z,9.38
2023-04-10T21:23:14.664Z,9.34
2023-04-10T21:25:52.151Z,9.31
2023-04-10T21:28:20.951Z,9.25
2023-04-10T21:30:49.339Z,9.14
2023-04-10T21:33:17.816Z,9.10
2023-04-10T21:35:46.345Z,9.09
2023-04-10T21:38:14.997Z,9.12
2023-04-10T21:40:50.541Z,9.12
2023-04-10T21:43:20.444Z,9.08
2023-04-10T21:45:58.085Z,9.08
2023-04-10T21:48:26.953Z,9.10
2023-04-10T21:50:55.556Z,9.08
2023-04-10T21:53:24.030Z,9.06
2023-04-10T21:55:52.721Z,8.92
2023-04-10T21:58:21.208Z,8.72
2023-04-10T22:00:51.936Z,8.62
2023-04-10T22:03:21.347Z,8.57
2023-04-10T22:05:50.865Z,8.54
2023-04-10T22:08:20.479Z,8.54
2023-04-10T22:10:49.378Z,8.57
2023-04-10T22:13:29.453Z,8.58
2023-04-10T22:16:02.515Z,8.50
2023-04-10T22:18:32.000Z,8.40
2023-04-10T22:21:00.802Z,8.30
2023-04-10T22:23:29.116Z,8.28
2023-04-10T22:26:00.884Z,8.28
2023-04-10T22:28:29.355Z,8.30
2023-04-10T22:30:58.519Z,8.33
2023-04-10T22:33:27.055Z,8.33
2023-04-10T22:35:55.649Z,8.33
2023-04-10T22:38:24.226Z,8.38
2023-04-10T22:40:55.968Z,8.37
2023-04-10T22:43:24.580Z,8.35
2023-04-10T22:45:53.083Z,8.34
2023-04-10T22:48:28.864Z,8.33
2023-04-10T22:50:57.701Z,8.32
2023-04-10T22:53:29.773Z,8.29
2023-04-10T22:55:58.360Z,8.25
2023-04-10T22:58:26.947Z,8.23
2023-04-10T23:00:55.846Z,8.18
2023-04-10T23:03:24.386Z,8.11
2023-04-10T23:05:53.338Z,8.06
2023-04-10T23:08:21.821Z,8.03
2023-04-10T23:10:53.441Z,8.05
2023-04-10T23:13:22.356Z,8.09
2023-04-10T23:15:55.384Z,8.04
2023-04-10T23:18:23.761Z,7.93
2023-04-10T23:20:52.346Z,7.80
2023-04-10T23:23:21.039Z,7.71
2023-04-10T23:25:58.090Z,7.67
2023-04-10T23:28:27.603Z,7.68
2023-04-10T23:30:56.122Z,7.72
2023-04-10T23:33:24.605Z,7.73
2023-04-10T23:35:53.363Z,7.75
2023-04-10T23:38:22.393Z,7.78
2023-04-10T23:40:50.777Z,7.82
2023-04-10T23:43:19.262Z,7.87
2023-04-10T23:45:48.056Z,7.91
2023-04-10T23:48:16.748Z,8.00
2023-04-10T23:50:44.928Z,8.08
2023-04-10T23:53:14.553Z,8.12
2023-04-10T23:55:43.436Z,8.20
2023-04-10T23:58:11.924Z,8.23
